sensor_id;sensor_type;location;lat;lon;timestamp;P1;durP1;ratioP1;P2;durP2;ratioP2
12511;SDS011;6321;53.798;10.382;2023-04-25T00:01:10;13.70;;;6.60;;
12511;SDS011;6321;53.798;10.382;2023-04-25T00:03:38;11.50;;;7.07;;
12511;SDS011;6321;53.798;10.382;2023-04-25T00:06:04;13.57;;;6.17;;
12511;SDS011;6321;53.798;10.382;2023-04-25T00:08:31;9.27;;;6.67;;
12511;SDS011;6321;53.798;10.382;2023-04-25T00:10:57;15.87;;;7.20;;
12511;SDS011;6321;53.798;10.382;2023-04-25T00:13:23;9.97;;;6.37;;
12511;SDS011;6321;53.798;10.382;2023-04-25T00:15:50;12.27;;;5.87;;
12511;SDS011;6321;53.798;10.382;2023-04-25T00:18:16;13.53;;;6.00;;
12511;SDS011;6321;53.798;10.382;2023-04-25T00:20:42;14.07;;;6.83;;
12511;SDS011;6321;53.798;10.382;2023-04-25T00:23:11;15.07;;;7.00;;
12511;SDS011;6321;53.798;10.382;2023-04-25T00:25:37;17.53;;;6.73;;
12511;SDS011;6321;53.798;10.382;2023-04-25T00:28:03;13.80;;;7.10;;
12511;SDS011;6321;53.798;10.382;2023-04-25T00:30:29;13.50;;;6.03;;
12511;SDS011;6321;53.798;10.382;2023-04-25T00:32:55;17.07;;;6.60;;
12511;SDS011;6321;53.798;10.382;2023-04-25T00:35:21;13.33;;;5.70;;
12511;SDS011;6321;53.798;10.382;2023-04-25T00:37:47;13.80;;;5.27;;
12511;SDS011;6321;53.798;10.382;2023-04-25T00:40:13;14.20;;;5.23;;
12511;SDS011;6321;53.798;10.382;2023-04-25T00:42:39;16.87;;;4.80;;
12511;SDS011;6321;53.798;10.382;2023-04-25T00:45:06;17.30;;;5.73;;
12511;SDS011;6321;53.798;10.382;2023-04-25T00:47:32;10.30;;;4.07;;
12511;SDS011;6321;53.798;10.382;2023-04-25T00:49:59;14.70;;;4.30;;
12511;SDS011;6321;53.798;10.382;2023-04-25T00:52:25;18.90;;;4.97;;
12511;SDS011;6321;53.798;10.382;2023-04-25T00:54:51;15.67;;;4.90;;
12511;SDS011;6321;53.798;10.382;2023-04-25T00:57:16;15.83;;;5.23;;
12511;SDS011;6321;53.798;10.382;2023-04-25T00:59:44;18.37;;;5.03;;
12511;SDS011;6321;53.798;10.382;2023-04-25T01:02:11;18.23;;;5.10;;
12511;SDS011;6321;53.798;10.382;2023-04-25T01:04:37;18.37;;;5.23;;
12511;SDS011;6321;53.798;10.382;2023-04-25T01:07:03;22.23;;;4.50;;
12511;SDS011;6321;53.798;10.382;2023-04-25T01:09:30;15.30;;;4.47;;
12511;SDS011;6321;53.798;10.382;2023-04-25T01:11:58;18.40;;;4.67;;
12511;SDS011;6321;53.798;10.382;2023-04-25T01:14:26;13.13;;;4.23;;
12511;SDS011;6321;53.798;10.382;2023-04-25T01:16:52;11.43;;;4.37;;
12511;SDS011;6321;53.798;10.382;2023-04-25T01:19:18;16.43;;;4.20;;
12511;SDS011;6321;53.798;10.382;2023-04-25T01:21:44;17.40;;;4.00;;
12511;SDS011;6321;53.798;10.382;2023-04-25T01:24:10;23.03;;;4.27;;
12511;SDS011;6321;53.798;10.382;2023-04-25T01:26:36;13.00;;;4.50;;
12511;SDS011;6321;53.798;10.382;2023-04-25T01:29:03;17.80;;;4.80;;
12511;SDS011;6321;53.798;10.382;2023-04-25T01:31:30;17.67;;;5.07;;
12511;SDS011;6321;53.798;10.382;2023-04-25T01:33:56;14.10;;;4.63;;
12511;SDS011;6321;53.798;10.382;2023-04-25T01:36:22;16.20;;;5.30;;
12511;SDS011;6321;53.798;10.382;2023-04-25T01:38:48;13.07;;;4.23;;
12511;SDS011;6321;53.798;10.382;2023-04-25T01:41:14;20.90;;;4.70;;
12511;SDS011;6321;53.798;10.382;2023-04-25T01:43:42;19.30;;;4.73;;
12511;SDS011;6321;53.798;10.382;2023-04-25T01:46:08;13.97;;;4.23;;
12511;SDS011;6321;53.798;10.382;2023-04-25T01:48:34;23.83;;;5.07;;
12511;SDS011;6321;53.798;10.382;2023-04-25T01:51:00;22.47;;;4.37;;
12511;SDS011;6321;53.798;10.382;2023-04-25T01:53:26;11.67;;;4.10;;
12511;SDS011;6321;53.798;10.382;2023-04-25T01:55:52;21.17;;;4.57;;
12511;SDS011;6321;53.798;10.382;2023-04-25T01:58:18;19.87;;;4.53;;
12511;SDS011;6321;53.798;10.382;2023-04-25T02:00:44;26.97;;;6.30;;
12511;SDS011;6321;53.798;10.382;2023-04-25T02:03:10;14.67;;;4.97;;
12511;SDS011;6321;53.798;10.382;2023-04-25T02:05:37;17.20;;;4.57;;
12511;SDS011;6321;53.798;10.382;2023-04-25T02:08:04;15.57;;;4.77;;
12511;SDS011;6321;53.798;10.382;2023-04-25T02:10:30;13.90;;;4.50;;
12511;SDS011;6321;53.798;10.382;2023-04-25T02:12:57;13.20;;;3.80;;
12511;SDS011;6321;53.798;10.382;2023-04-25T02:15:23;9.90;;;4.00;;
12511;SDS011;6321;53.798;10.382;2023-04-25T02:17:49;13.37;;;4.23;;
12511;SDS011;6321;53.798;10.382;2023-04-25T02:20:17;25.03;;;5.07;;
12511;SDS011;6321;53.798;10.382;2023-04-25T02:22:44;15.63;;;3.93;;
12511;SDS011;6321;53.798;10.382;2023-04-25T02:25:10;15.47;;;3.93;;
12511;SDS011;6321;53.798;10.382;2023-04-25T02:27:36;14.97;;;4.67;;
12511;SDS011;6321;53.798;10.382;2023-04-25T02:30:03;16.13;;;4.53;;
12511;SDS011;6321;53.798;10.382;2023-04-25T02:32:29;7.33;;;3.20;;
12511;SDS011;6321;53.798;10.382;2023-04-25T02:34:55;12.50;;;4.17;;
12511;SDS011;6321;53.798;10.382;2023-04-25T02:37:23;18.67;;;4.23;;
12511;SDS011;6321;53.798;10.382;2023-04-25T02:39:49;11.37;;;4.10;;
12511;SDS011;6321;53.798;10.382;2023-04-25T02:42:15;16.03;;;4.63;;
12511;SDS011;6321;53.798;10.382;2023-04-25T02:44:41;14.33;;;5.03;;
12511;SDS011;6321;53.798;10.382;2023-04-25T02:47:07;14.63;;;3.87;;
12511;SDS011;6321;53.798;10.382;2023-04-25T02:49:33;18.57;;;4.70;;
12511;SDS011;6321;53.798;10.382;2023-04-25T02:51:59;13.37;;;3.80;;
12511;SDS011;6321;53.798;10.382;2023-04-25T02:54:25;12.93;;;3.77;;
12511;SDS011;6321;53.798;10.382;2023-04-25T02:56:51;13.20;;;4.53;;
12511;SDS011;6321;53.798;10.382;2023-04-25T02:59:17;13.70;;;3.77;;
12511;SDS011;6321;53.798;10.382;2023-04-25T03:01:43;18.93;;;4.70;;
12511;SDS011;6321;53.798;10.382;2023-04-25T03:04:08;18.00;;;4.20;;
12511;SDS011;6321;53.798;10.382;2023-04-25T03:06:34;12.60;;;3.93;;
12511;SDS011;6321;53.798;10.382;2023-04-25T03:09:00;12.60;;;3.93;;
12511;SDS011;6321;53.798;10.382;2023-04-25T03:11:26;13.73;;;4.20;;
12511;SDS011;6321;53.798;10.382;2023-04-25T03:13:52;16.37;;;3.17;;
12511;SDS011;6321;53.798;10.382;2023-04-25T03:16:18;14.93;;;3.97;;
12511;SDS011;6321;53.798;10.382;2023-04-25T03:18:44;18.40;;;4.90;;
12511;SDS011;6321;53.798;10.382;2023-04-25T03:21:10;16.30;;;4.33;;
12511;SDS011;6321;53.798;10.382;2023-04-25T03:23:36;16.83;;;4.10;;
12511;SDS011;6321;53.798;10.382;2023-04-25T03:26:02;12.87;;;3.97;;
12511;SDS011;6321;53.798;10.382;2023-04-25T03:28:29;11.43;;;3.77;;
12511;SDS011;6321;53.798;10.382;2023-04-25T03:30:55;15.47;;;3.83;;
12511;SDS011;6321;53.798;10.382;2023-04-25T03:33:21;20.13;;;4.63;;
12511;SDS011;6321;53.798;10.382;2023-04-25T03:35:47;13.17;;;3.70;;
12511;SDS011;6321;53.798;10.382;2023-04-25T03:38:14;15.57;;;4.20;;
12511;SDS011;6321;53.798;10.382;2023-04-25T03:40:40;21.53;;;4.60;;
12511;SDS011;6321;53.798;10.382;2023-04-25T03:43:06;19.70;;;4.03;;
12511;SDS011;6321;53.798;10.382;2023-04-25T03:45:32;14.67;;;4.37;;
12511;SDS011;6321;53.798;10.382;2023-04-25T03:47:58;13.83;;;3.87;;
12511;SDS011;6321;53.798;10.382;2023-04-25T03:50:24;16.17;;;4.27;;
12511;SDS011;6321;53.798;10.382;2023-04-25T03:52:50;14.80;;;4.07;;
12511;SDS011;6321;53.798;10.382;2023-04-25T03:55:16;8.50;;;3.80;;
12511;SDS011;6321;53.798;10.382;2023-04-25T03:57:42;16.03;;;4.17;;
12511;SDS011;6321;53.798;10.382;2023-04-25T04:00:08;13.47;;;3.80;;
12511;SDS011;6321;53.798;10.382;2023-04-25T04:02:34;14.50;;;3.60;;
12511;SDS011;6321;53.798;10.382;2023-04-25T04:05:02;19.97;;;4.97;;
12511;SDS011;6321;53.798;10.382;2023-04-25T04:07:28;14.97;;;3.67;;
12511;SDS011;6321;53.798;10.382;2023-04-25T04:09:54;26.37;;;4.40;;
12511;SDS011;6321;53.798;10.382;2023-04-25T04:12:20;24.40;;;4.63;;
12511;SDS011;6321;53.798;10.382;2023-04-25T04:14:46;18.77;;;4.20;;
12511;SDS011;6321;53.798;10.382;2023-04-25T04:17:12;20.47;;;6.63;;
12511;SDS011;6321;53.798;10.382;2023-04-25T04:19:38;14.87;;;4.00;;
12511;SDS011;6321;53.798;10.382;2023-04-25T04:22:04;16.77;;;4.40;;
12511;SDS011;6321;53.798;10.382;2023-04-25T04:24:30;21.50;;;4.30;;
12511;SDS011;6321;53.798;10.382;2023-04-25T04:26:55;19.80;;;4.43;;
12511;SDS011;6321;53.798;10.382;2023-04-25T04:29:21;19.63;;;4.23;;
12511;SDS011;6321;53.798;10.382;2023-04-25T04:31:51;11.93;;;4.37;;
12511;SDS011;6321;53.798;10.382;2023-04-25T04:34:17;17.97;;;5.13;;
12511;SDS011;6321;53.798;10.382;2023-04-25T04:36:43;17.67;;;5.17;;
12511;SDS011;6321;53.798;10.382;2023-04-25T04:39:11;19.70;;;5.03;;
12511;SDS011;6321;53.798;10.382;2023-04-25T04:41:36;16.77;;;4.60;;
12511;SDS011;6321;53.798;10.382;2023-04-25T04:44:03;14.40;;;4.57;;
12511;SDS011;6321;53.798;10.382;2023-04-25T04:46:28;11.67;;;4.23;;
12511;SDS011;6321;53.798;10.382;2023-04-25T04:48:56;13.17;;;4.60;;
12511;SDS011;6321;53.798;10.382;2023-04-25T04:51:21;16.63;;;3.87;;
12511;SDS011;6321;53.798;10.382;2023-04-25T04:53:47;16.23;;;4.30;;
12511;SDS011;6321;53.798;10.382;2023-04-25T04:56:13;14.03;;;4.57;;
12511;SDS011;6321;53.798;10.382;2023-04-25T04:58:40;15.20;;;3.87;;
12511;SDS011;6321;53.798;10.382;2023-04-25T05:01:06;14.27;;;4.23;;
12511;SDS011;6321;53.798;10.382;2023-04-25T05:03:32;9.43;;;4.40;;
12511;SDS011;6321;53.798;10.382;2023-04-25T05:05:58;16.27;;;4.83;;
12511;SDS011;6321;53.798;10.382;2023-04-25T05:08:24;15.07;;;4.07;;
12511;SDS011;6321;53.798;10.382;2023-04-25T05:10:50;15.97;;;4.07;;
12511;SDS011;6321;53.798;10.382;2023-04-25T05:13:16;15.53;;;3.93;;
12511;SDS011;6321;53.798;10.382;2023-04-25T05:15:42;12.30;;;3.77;;
12511;SDS011;6321;53.798;10.382;2023-04-25T05:18:08;12.80;;;3.70;;
12511;SDS011;6321;53.798;10.382;2023-04-25T05:20:34;17.27;;;3.30;;
12511;SDS011;6321;53.798;10.382;2023-04-25T05:23:00;11.53;;;4.03;;
12511;SDS011;6321;53.798;10.382;2023-04-25T05:25:26;11.70;;;3.87;;
12511;SDS011;6321;53.798;10.382;2023-04-25T05:27:52;20.47;;;4.17;;
12511;SDS011;6321;53.798;10.382;2023-04-25T05:30:18;11.20;;;3.77;;
12511;SDS011;6321;53.798;10.382;2023-04-25T05:32:44;14.13;;;3.83;;
12511;SDS011;6321;53.798;10.382;2023-04-25T05:35:11;17.50;;;3.60;;
12511;SDS011;6321;53.798;10.382;2023-04-25T05:37:37;10.60;;;3.33;;
12511;SDS011;6321;53.798;10.382;2023-04-25T05:40:03;10.50;;;3.43;;
12511;SDS011;6321;53.798;10.382;2023-04-25T05:42:31;14.13;;;3.77;;
12511;SDS011;6321;53.798;10.382;2023-04-25T05:44:57;12.47;;;3.37;;
12511;SDS011;6321;53.798;10.382;2023-04-25T05:47:23;12.73;;;3.33;;
12511;SDS011;6321;53.798;10.382;2023-04-25T05:49:49;11.23;;;3.17;;
12511;SDS011;6321;53.798;10.382;2023-04-25T05:52:15;12.83;;;3.90;;
12511;SDS011;6321;53.798;10.382;2023-04-25T05:54:41;11.63;;;3.30;;
12511;SDS011;6321;53.798;10.382;2023-04-25T05:57:07;9.10;;;2.67;;
12511;SDS011;6321;53.798;10.382;2023-04-25T05:59:33;10.43;;;3.83;;
12511;SDS011;6321;53.798;10.382;2023-04-25T06:01:59;10.00;;;3.27;;
12511;SDS011;6321;53.798;10.382;2023-04-25T06:04:25;13.37;;;3.00;;
12511;SDS011;6321;53.798;10.382;2023-04-25T06:06:51;7.30;;;2.80;;
12511;SDS011;6321;53.798;10.382;2023-04-25T06:09:17;11.93;;;3.10;;
12511;SDS011;6321;53.798;10.382;2023-04-25T06:11:43;8.33;;;2.93;;
12511;SDS011;6321;53.798;10.382;2023-04-25T06:14:09;10.77;;;3.13;;
12511;SDS011;6321;53.798;10.382;2023-04-25T06:16:35;11.50;;;3.30;;
12511;SDS011;6321;53.798;10.382;2023-04-25T06:19:01;8.70;;;2.67;;
12511;SDS011;6321;53.798;10.382;2023-04-25T06:21:27;9.17;;;2.83;;
12511;SDS011;6321;53.798;10.382;2023-04-25T06:23:53;11.90;;;3.17;;
12511;SDS011;6321;53.798;10.382;2023-04-25T06:26:19;12.53;;;3.37;;
12511;SDS011;6321;53.798;10.382;2023-04-25T06:28:45;11.07;;;3.20;;
12511;SDS011;6321;53.798;10.382;2023-04-25T06:31:11;11.03;;;2.83;;
12511;SDS011;6321;53.798;10.382;2023-04-25T06:33:37;8.50;;;2.87;;
12511;SDS011;6321;53.798;10.382;2023-04-25T06:36:03;7.63;;;3.57;;
12511;SDS011;6321;53.798;10.382;2023-04-25T06:38:29;12.83;;;3.10;;
12511;SDS011;6321;53.798;10.382;2023-04-25T06:40:55;9.20;;;3.57;;
12511;SDS011;6321;53.798;10.382;2023-04-25T06:43:21;13.50;;;3.47;;
12511;SDS011;6321;53.798;10.382;2023-04-25T06:45:47;8.33;;;3.07;;
12511;SDS011;6321;53.798;10.382;2023-04-25T06:48:13;13.03;;;2.80;;
12511;SDS011;6321;53.798;10.382;2023-04-25T06:50:40;10.40;;;2.93;;
12511;SDS011;6321;53.798;10.382;2023-04-25T06:53:06;7.73;;;3.27;;
12511;SDS011;6321;53.798;10.382;2023-04-25T06:55:33;9.20;;;3.13;;
12511;SDS011;6321;53.798;10.382;2023-04-25T06:57:59;12.43;;;3.37;;
12511;SDS011;6321;53.798;10.382;2023-04-25T07:00:25;13.00;;;3.50;;
12511;SDS011;6321;53.798;10.382;2023-04-25T07:02:53;11.17;;;3.13;;
12511;SDS011;6321;53.798;10.382;2023-04-25T07:05:19;10.33;;;3.00;;
12511;SDS011;6321;53.798;10.382;2023-04-25T07:07:46;8.00;;;3.20;;
12511;SDS011;6321;53.798;10.382;2023-04-25T07:10:13;14.13;;;3.70;;
12511;SDS011;6321;53.798;10.382;2023-04-25T07:12:40;9.60;;;3.37;;
12511;SDS011;6321;53.798;10.382;2023-04-25T07:15:06;14.03;;;3.47;;
12511;SDS011;6321;53.798;10.382;2023-04-25T07:17:34;8.80;;;3.07;;
12511;SDS011;6321;53.798;10.382;2023-04-25T07:22:26;11.77;;;3.63;;
12511;SDS011;6321;53.798;10.382;2023-04-25T07:24:52;10.87;;;3.40;;
12511;SDS011;6321;53.798;10.382;2023-04-25T07:27:19;10.47;;;2.87;;
12511;SDS011;6321;53.798;10.382;2023-04-25T07:29:45;11.43;;;2.77;;
12511;SDS011;6321;53.798;10.382;2023-04-25T07:32:11;10.33;;;3.37;;
12511;SDS011;6321;53.798;10.382;2023-04-25T07:34:38;6.23;;;3.23;;
12511;SDS011;6321;53.798;10.382;2023-04-25T07:37:04;5.47;;;3.10;;
12511;SDS011;6321;53.798;10.382;2023-04-25T07:39:30;10.13;;;3.17;;
12511;SDS011;6321;53.798;10.382;2023-04-25T07:41:56;10.37;;;2.23;;
12511;SDS011;6321;53.798;10.382;2023-04-25T07:44:26;12.73;;;2.80;;
12511;SDS011;6321;53.798;10.382;2023-04-25T07:46:53;9.00;;;2.10;;
12511;SDS011;6321;53.798;10.382;2023-04-25T07:49:18;8.63;;;2.60;;
12511;SDS011;6321;53.798;10.382;2023-04-25T07:51:45;6.07;;;2.03;;
12511;SDS011;6321;53.798;10.382;2023-04-25T07:54:14;10.00;;;2.93;;
12511;SDS011;6321;53.798;10.382;2023-04-25T07:56:43;7.10;;;2.13;;
12511;SDS011;6321;53.798;10.382;2023-04-25T07:59:09;9.83;;;3.50;;
12511;SDS011;6321;53.798;10.382;2023-04-25T08:01:35;9.90;;;2.33;;
12511;SDS011;6321;53.798;10.382;2023-04-25T08:04:01;5.83;;;2.37;;
12511;SDS011;6321;53.798;10.382;2023-04-25T08:06:27;13.27;;;3.00;;
12511;SDS011;6321;53.798;10.382;2023-04-25T08:08:53;6.97;;;1.73;;
12511;SDS011;6321;53.798;10.382;2023-04-25T08:11:20;6.03;;;2.03;;
12511;SDS011;6321;53.798;10.382;2023-04-25T08:13:46;4.83;;;2.10;;
12511;SDS011;6321;53.798;10.382;2023-04-25T08:16:12;6.80;;;2.83;;
12511;SDS011;6321;53.798;10.382;2023-04-25T08:18:38;4.93;;;2.10;;
12511;SDS011;6321;53.798;10.382;2023-04-25T08:21:04;6.83;;;2.50;;
12511;SDS011;6321;53.798;10.382;2023-04-25T08:23:30;4.60;;;2.17;;
12511;SDS011;6321;53.798;10.382;2023-04-25T08:25:56;12.87;;;3.00;;
12511;SDS011;6321;53.798;10.382;2023-04-25T08:28:22;10.77;;;2.60;;
12511;SDS011;6321;53.798;10.382;2023-04-25T08:30:48;9.77;;;3.10;;
12511;SDS011;6321;53.798;10.382;2023-04-25T08:33:14;9.40;;;2.67;;
12511;SDS011;6321;53.798;10.382;2023-04-25T08:35:40;7.90;;;2.10;;
12511;SDS011;6321;53.798;10.382;2023-04-25T08:38:06;6.50;;;2.20;;
12511;SDS011;6321;53.798;10.382;2023-04-25T08:40:32;4.67;;;1.70;;
12511;SDS011;6321;53.798;10.382;2023-04-25T08:43:00;7.20;;;2.47;;
12511;SDS011;6321;53.798;10.382;2023-04-25T08:45:28;9.70;;;2.90;;
12511;SDS011;6321;53.798;10.382;2023-04-25T08:47:56;6.87;;;3.00;;
12511;SDS011;6321;53.798;10.382;2023-04-25T08:50:23;10.60;;;2.90;;
12511;SDS011;6321;53.798;10.382;2023-04-25T08:52:51;12.27;;;2.70;;
12511;SDS011;6321;53.798;10.382;2023-04-25T08:55:18;11.63;;;2.67;;
12511;SDS011;6321;53.798;10.382;2023-04-25T08:57:44;4.40;;;1.97;;
12511;SDS011;6321;53.798;10.382;2023-04-25T09:00:11;3.33;;;1.73;;
12511;SDS011;6321;53.798;10.382;2023-04-25T09:02:41;13.63;;;2.97;;
12511;SDS011;6321;53.798;10.382;2023-04-25T09:05:08;6.83;;;2.37;;
12511;SDS011;6321;53.798;10.382;2023-04-25T09:07:37;6.43;;;2.27;;
12511;SDS011;6321;53.798;10.382;2023-04-25T09:10:03;13.70;;;2.67;;
12511;SDS011;6321;53.798;10.382;2023-04-25T09:12:29;5.10;;;2.30;;
12511;SDS011;6321;53.798;10.382;2023-04-25T09:15:06;9.20;;;2.70;;
12511;SDS011;6321;53.798;10.382;2023-04-25T09:17:32;8.23;;;2.27;;
12511;SDS011;6321;53.798;10.382;2023-04-25T09:20:05;6.37;;;2.60;;
12511;SDS011;6321;53.798;10.382;2023-04-25T09:22:32;6.47;;;2.20;;
12511;SDS011;6321;53.798;10.382;2023-04-25T09:24:58;2.70;;;1.37;;
12511;SDS011;6321;53.798;10.382;2023-04-25T09:27:27;5.10;;;2.00;;
12511;SDS011;6321;53.798;10.382;2023-04-25T09:29:57;9.73;;;2.93;;
12511;SDS011;6321;53.798;10.382;2023-04-25T09:32:26;5.90;;;1.73;;
12511;SDS011;6321;53.798;10.382;2023-04-25T09:34:53;10.23;;;2.53;;
12511;SDS011;6321;53.798;10.382;2023-04-25T09:39:45;6.97;;;2.03;;
12511;SDS011;6321;53.798;10.382;2023-04-25T09:42:15;5.80;;;1.60;;
12511;SDS011;6321;53.798;10.382;2023-04-25T09:44:42;5.90;;;1.77;;
12511;SDS011;6321;53.798;10.382;2023-04-25T09:47:15;5.43;;;1.47;;
12511;SDS011;6321;53.798;10.382;2023-04-25T09:49:46;4.50;;;1.63;;
12511;SDS011;6321;53.798;10.382;2023-04-25T09:52:13;3.67;;;1.47;;
12511;SDS011;6321;53.798;10.382;2023-04-25T09:54:40;6.30;;;1.77;;
12511;SDS011;6321;53.798;10.382;2023-04-25T09:57:13;3.43;;;1.43;;
12511;SDS011;6321;53.798;10.382;2023-04-25T09:59:42;3.23;;;1.33;;
12511;SDS011;6321;53.798;10.382;2023-04-25T10:02:09;5.80;;;1.67;;
12511;SDS011;6321;53.798;10.382;2023-04-25T10:04:36;2.93;;;1.50;;
12511;SDS011;6321;53.798;10.382;2023-04-25T10:07:04;5.57;;;1.80;;
12511;SDS011;6321;53.798;10.382;2023-04-25T10:09:31;7.83;;;2.00;;
12511;SDS011;6321;53.798;10.382;2023-04-25T10:11:58;4.13;;;1.53;;
12511;SDS011;6321;53.798;10.382;2023-04-25T10:14:25;8.33;;;2.37;;
12511;SDS011;6321;53.798;10.382;2023-04-25T10:16:51;5.00;;;2.43;;
12511;SDS011;6321;53.798;10.382;2023-04-25T10:19:18;8.67;;;2.33;;
12511;SDS011;6321;53.798;10.382;2023-04-25T10:21:51;5.33;;;1.83;;
12511;SDS011;6321;53.798;10.382;2023-04-25T10:24:18;8.47;;;2.53;;
12511;SDS011;6321;53.798;10.382;2023-04-25T10:26:44;5.10;;;1.80;;
12511;SDS011;6321;53.798;10.382;2023-04-25T10:29:11;6.93;;;1.83;;
12511;SDS011;6321;53.798;10.382;2023-04-25T10:31:44;3.97;;;1.53;;
12511;SDS011;6321;53.798;10.382;2023-04-25T10:34:13;4.27;;;1.40;;
12511;SDS011;6321;53.798;10.382;2023-04-25T10:36:39;6.50;;;1.77;;
12511;SDS011;6321;53.798;10.382;2023-04-25T10:39:05;3.30;;;1.40;;
12511;SDS011;6321;53.798;10.382;2023-04-25T10:44:36;3.27;;;1.63;;
12511;SDS011;6321;53.798;10.382;2023-04-25T10:47:02;3.70;;;2.00;;
12511;SDS011;6321;53.798;10.382;2023-04-25T10:50:03;3.97;;;2.10;;
12511;SDS011;6321;53.798;10.382;2023-04-25T10:52:26;4.20;;;1.80;;
12511;SDS011;6321;53.798;10.382;2023-04-25T10:54:55;3.60;;;1.50;;
12511;SDS011;6321;53.798;10.382;2023-04-25T10:57:37;4.33;;;1.43;;
12511;SDS011;6321;53.798;10.382;2023-04-25T11:00:08;5.40;;;1.90;;
12511;SDS011;6321;53.798;10.382;2023-04-25T11:02:45;3.93;;;1.37;;
12511;SDS011;6321;53.798;10.382;2023-04-25T11:07:51;6.47;;;1.97;;
12511;SDS011;6321;53.798;10.382;2023-04-25T11:10:17;3.83;;;2.27;;
12511;SDS011;6321;53.798;10.382;2023-04-25T11:12:44;5.53;;;1.77;;
12511;SDS011;6321;53.798;10.382;2023-04-25T11:15:10;5.60;;;1.77;;
12511;SDS011;6321;53.798;10.382;2023-04-25T11:17:36;6.33;;;1.73;;
12511;SDS011;6321;53.798;10.382;2023-04-25T11:20:04;6.87;;;1.97;;
12511;SDS011;6321;53.798;10.382;2023-04-25T11:22:36;6.43;;;1.50;;
12511;SDS011;6321;53.798;10.382;2023-04-25T11:25:06;3.37;;;1.10;;
12511;SDS011;6321;53.798;10.382;2023-04-25T11:27:33;7.03;;;1.53;;
12511;SDS011;6321;53.798;10.382;2023-04-25T11:30:09;2.43;;;1.10;;
12511;SDS011;6321;53.798;10.382;2023-04-25T11:32:35;6.77;;;1.23;;
12511;SDS011;6321;53.798;10.382;2023-04-25T11:35:01;2.13;;;1.17;;
12511;SDS011;6321;53.798;10.382;2023-04-25T11:37:27;5.37;;;1.80;;
12511;SDS011;6321;53.798;10.382;2023-04-25T11:39:53;3.00;;;1.37;;
12511;SDS011;6321;53.798;10.382;2023-04-25T11:42:19;3.13;;;1.37;;
12511;SDS011;6321;53.798;10.382;2023-04-25T11:44:45;2.00;;;1.27;;
12511;SDS011;6321;53.798;10.382;2023-04-25T11:47:11;1.47;;;0.70;;
12511;SDS011;6321;53.798;10.382;2023-04-25T11:49:37;2.67;;;1.27;;
12511;SDS011;6321;53.798;10.382;2023-04-25T11:52:05;3.93;;;1.50;;
12511;SDS011;6321;53.798;10.382;2023-04-25T11:54:34;7.87;;;1.50;;
12511;SDS011;6321;53.798;10.382;2023-04-25T11:57:00;5.10;;;1.70;;
12511;SDS011;6321;53.798;10.382;2023-04-25T11:59:27;2.03;;;1.73;;
12511;SDS011;6321;53.798;10.382;2023-04-25T12:01:53;4.07;;;1.90;;
12511;SDS011;6321;53.798;10.382;2023-04-25T12:04:23;3.97;;;1.60;;
12511;SDS011;6321;53.798;10.382;2023-04-25T12:06:50;5.70;;;1.50;;
12511;SDS011;6321;53.798;10.382;2023-04-25T12:09:17;5.27;;;1.67;;
12511;SDS011;6321;53.798;10.382;2023-04-25T12:11:47;6.83;;;1.80;;
12511;SDS011;6321;53.798;10.382;2023-04-25T12:14:20;5.43;;;1.67;;
12511;SDS011;6321;53.798;10.382;2023-04-25T12:16:48;5.60;;;1.80;;
12511;SDS011;6321;53.798;10.382;2023-04-25T12:19:15;4.47;;;1.10;;
12511;SDS011;6321;53.798;10.382;2023-04-25T12:21:41;9.50;;;1.63;;
12511;SDS011;6321;53.798;10.382;2023-04-25T12:24:17;6.27;;;2.00;;
12511;SDS011;6321;53.798;10.382;2023-04-25T12:27:01;7.57;;;2.77;;
12511;SDS011;6321;53.798;10.382;2023-04-25T12:29:28;8.53;;;1.77;;
12511;SDS011;6321;53.798;10.382;2023-04-25T12:31:54;2.23;;;1.33;;
12511;SDS011;6321;53.798;10.382;2023-04-25T12:34:21;4.70;;;1.60;;
12511;SDS011;6321;53.798;10.382;2023-04-25T12:36:47;6.30;;;1.60;;
12511;SDS011;6321;53.798;10.382;2023-04-25T12:39:14;3.73;;;1.50;;
12511;SDS011;6321;53.798;10.382;2023-04-25T12:41:40;3.47;;;1.47;;
12511;SDS011;6321;53.798;10.382;2023-04-25T12:44:06;4.40;;;1.63;;
12511;SDS011;6321;53.798;10.382;2023-04-25T12:46:32;3.43;;;1.63;;
12511;SDS011;6321;53.798;10.382;2023-04-25T12:48:58;1.80;;;1.13;;
12511;SDS011;6321;53.798;10.382;2023-04-25T12:51:25;5.47;;;1.60;;
12511;SDS011;6321;53.798;10.382;2023-04-25T12:53:52;5.60;;;1.70;;
12511;SDS011;6321;53.798;10.382;2023-04-25T12:56:18;6.47;;;1.63;;
12511;SDS011;6321;53.798;10.382;2023-04-25T12:58:44;3.37;;;1.40;;
12511;SDS011;6321;53.798;10.382;2023-04-25T13:01:10;3.50;;;1.80;;
12511;SDS011;6321;53.798;10.382;2023-04-25T13:03:37;5.60;;;1.40;;
12511;SDS011;6321;53.798;10.382;2023-04-25T13:06:03;5.33;;;1.53;;
12511;SDS011;6321;53.798;10.382;2023-04-25T13:08:29;3.20;;;1.40;;
12511;SDS011;6321;53.798;10.382;2023-04-25T13:10:55;4.83;;;1.73;;
12511;SDS011;6321;53.798;10.382;2023-04-25T13:13:21;3.30;;;1.40;;
12511;SDS011;6321;53.798;10.382;2023-04-25T13:15:47;2.57;;;1.77;;
12511;SDS011;6321;53.798;10.382;2023-04-25T13:18:13;3.57;;;1.50;;
12511;SDS011;6321;53.798;10.382;2023-04-25T13:20:39;3.30;;;1.37;;
12511;SDS011;6321;53.798;10.382;2023-04-25T13:23:05;5.70;;;1.40;;
12511;SDS011;6321;53.798;10.382;2023-04-25T13:25:31;6.33;;;1.73;;
12511;SDS011;6321;53.798;10.382;2023-04-25T13:27:57;7.17;;;2.10;;
12511;SDS011;6321;53.798;10.382;2023-04-25T13:30:23;2.73;;;1.60;;
12511;SDS011;6321;53.798;10.382;2023-04-25T13:32:49;4.77;;;1.50;;
12511;SDS011;6321;53.798;10.382;2023-04-25T13:35:16;5.67;;;1.70;;
12511;SDS011;6321;53.798;10.382;2023-04-25T13:37:42;1.93;;;1.20;;
12511;SDS011;6321;53.798;10.382;2023-04-25T13:40:08;3.30;;;1.33;;
12511;SDS011;6321;53.798;10.382;2023-04-25T13:42:36;1.67;;;1.00;;
12511;SDS011;6321;53.798;10.382;2023-04-25T13:45:02;5.33;;;1.63;;
12511;SDS011;6321;53.798;10.382;2023-04-25T13:47:28;4.07;;;1.20;;
12511;SDS011;6321;53.798;10.382;2023-04-25T13:49:55;3.70;;;1.43;;
12511;SDS011;6321;53.798;10.382;2023-04-25T13:52:21;6.93;;;1.90;;
12511;SDS011;6321;53.798;10.382;2023-04-25T13:54:49;4.93;;;1.47;;
12511;SDS011;6321;53.798;10.382;2023-04-25T13:57:15;2.87;;;1.20;;
12511;SDS011;6321;53.798;10.382;2023-04-25T13:59:41;6.53;;;2.13;;
12511;SDS011;6321;53.798;10.382;2023-04-25T14:02:08;4.93;;;1.40;;
12511;SDS011;6321;53.798;10.382;2023-04-25T14:04:34;5.47;;;2.20;;
12511;SDS011;6321;53.798;10.382;2023-04-25T14:07:00;2.80;;;1.37;;
12511;SDS011;6321;53.798;10.382;2023-04-25T14:09:27;4.03;;;1.83;;
12511;SDS011;6321;53.798;10.382;2023-04-25T14:11:53;5.30;;;1.73;;
12511;SDS011;6321;53.798;10.382;2023-04-25T14:14:19;1.93;;;1.73;;
12511;SDS011;6321;53.798;10.382;2023-04-25T14:16:46;5.43;;;1.90;;
12511;SDS011;6321;53.798;10.382;2023-04-25T14:19:15;6.07;;;1.70;;
12511;SDS011;6321;53.798;10.382;2023-04-25T14:21:41;3.97;;;1.57;;
12511;SDS011;6321;53.798;10.382;2023-04-25T14:24:08;3.60;;;1.80;;
12511;SDS011;6321;53.798;10.382;2023-04-25T14:26:34;6.00;;;2.30;;
12511;SDS011;6321;53.798;10.382;2023-04-25T14:29:03;3.50;;;1.50;;
12511;SDS011;6321;53.798;10.382;2023-04-25T14:31:30;5.47;;;2.03;;
12511;SDS011;6321;53.798;10.382;2023-04-25T14:33:56;6.63;;;1.73;;
12511;SDS011;6321;53.798;10.382;2023-04-25T14:36:22;11.10;;;2.40;;
12511;SDS011;6321;53.798;10.382;2023-04-25T14:38:48;6.20;;;1.70;;
12511;SDS011;6321;53.798;10.382;2023-04-25T14:41:14;6.50;;;1.97;;
12511;SDS011;6321;53.798;10.382;2023-04-25T14:43:40;3.43;;;1.70;;
12511;SDS011;6321;53.798;10.382;2023-04-25T14:46:06;6.90;;;2.53;;
12511;SDS011;6321;53.798;10.382;2023-04-25T14:48:33;8.30;;;1.93;;